createdAt,value
2023-01-30T00:01:07.398Z,88.64
2023-01-30T00:03:35.964Z,89.18
2023-01-30T00:06:02.540Z,89.20
2023-01-30T00:08:29.101Z,89.26
2023-01-30T00:10:55.592Z,89.32
2023-01-30T00:13:22.057Z,88.93
2023-01-30T00:15:48.888Z,88.39
2023-01-30T00:18:15.405Z,88.11
2023-01-30T00:20:41.887Z,88.67
2023-01-30T00:23:08.338Z,88.47
2023-01-30T00:25:34.937Z,88.97
2023-01-30T00:28:02.057Z,89.53
2023-01-30T00:30:28.948Z,89.21
2023-01-30T00:32:56.077Z,88.58
2023-01-30T00:35:22.907Z,88.03
2023-01-30T00:37:49.342Z,88.72
2023-01-30T00:40:16.669Z,88.27
2023-01-30T00:43:01.979Z,88.37
2023-01-30T00:45:46.830Z,88.98
2023-01-30T00:48:13.428Z,89.06
2023-01-30T00:50:42.728Z,88.87
2023-01-30T00:53:12.890Z,89.17
2023-01-30T00:55:39.784Z,89.45
2023-01-30T00:58:06.396Z,89.59
2023-01-30T01:00:33.248Z,90.06
2023-01-30T01:02:59.947Z,90.08
2023-01-30T01:05:26.893Z,89.74
2023-01-30T01:07:53.815Z,89.97
2023-01-30T01:10:20.445Z,90.06
2023-01-30T01:12:47.215Z,90.49
2023-01-30T01:15:14.170Z,90.73
2023-01-30T01:17:41.874Z,90.69
2023-01-30T01:20:08.997Z,90.59
2023-01-30T01:22:35.539Z,90.86
2023-01-30T01:25:02.060Z,90.90
2023-01-30T01:27:29.209Z,91.00
2023-01-30T01:29:55.664Z,91.46
2023-01-30T01:32:22.897Z,90.92
2023-01-30T01:34:49.401Z,90.99
2023-01-30T01:37:15.886Z,91.04
2023-01-30T01:40:17.781Z,91.24
2023-01-30T01:42:44.323Z,91.57
2023-01-30T01:45:14.191Z,91.15
2023-01-30T01:47:43.331Z,91.32
2023-01-30T01:50:13.883Z,91.42
2023-01-30T01:52:40.918Z,91.42
2023-01-30T01:55:07.704Z,90.89
2023-01-30T01:57:45.820Z,90.73
2023-01-30T02:00:13.869Z,91.11
2023-01-30T02:03:00.655Z,91.49
2023-01-30T02:05:34.986Z,91.77
2023-01-30T02:08:07.574Z,92.46
2023-01-30T02:10:43.589Z,92.87
2023-01-30T02:13:10.066Z,93.24
2023-01-30T02:15:36.570Z,93.79
2023-01-30T02:18:03.775Z,94.50
2023-01-30T02:20:45.252Z,94.69
2023-01-30T02:23:30.417Z,94.95
2023-01-30T02:26:09.094Z,95.55
2023-01-30T02:28:54.388Z,96.40
2023-01-30T02:31:36.193Z,96.47
2023-01-30T02:34:12.860Z,96.86
2023-01-30T02:36:39.362Z,96.95
2023-01-30T02:39:14.413Z,97.39
2023-01-30T02:41:59.208Z,97.91
2023-01-30T02:44:30.414Z,97.94
2023-01-30T02:46:59.780Z,97.47
2023-01-30T02:49:32.349Z,97.28
2023-01-30T02:52:01.967Z,97.41
2023-01-30T02:54:28.481Z,97.25
2023-01-30T02:56:57.993Z,97.37
2023-01-30T02:59:32.234Z,97.61
2023-01-30T03:02:13.636Z,97.55
2023-01-30T03:05:03.746Z,97.66
2023-01-30T03:07:49.668Z,97.35
2023-01-30T03:10:22.114Z,97.89
2023-01-30T03:12:50.419Z,97.87
2023-01-30T03:15:20.211Z,97.70
2023-01-30T03:17:47.742Z,96.84
2023-01-30T03:20:15.830Z,97.14
2023-01-30T03:22:42.290Z,96.48
2023-01-30T03:25:09.176Z,95.86
2023-01-30T03:27:36.106Z,95.42
2023-01-30T03:30:02.592Z,94.84
2023-01-30T03:32:29.016Z,94.64
2023-01-30T03:34:55.501Z,94.61
2023-01-30T03:37:21.934Z,93.90
2023-01-30T03:39:48.519Z,92.81
2023-01-30T03:42:15.087Z,92.97
2023-01-30T03:44:41.554Z,92.19
2023-01-30T03:47:08.047Z,92.19
2023-01-30T03:49:34.656Z,92.64
2023-01-30T03:52:01.114Z,93.02
2023-01-30T03:54:27.860Z,93.82
2023-01-30T03:56:54.452Z,94.49
2023-01-30T03:59:20.897Z,94.75
2023-01-30T04:01:47.347Z,95.26
2023-01-30T04:04:13.812Z,95.37
2023-01-30T04:06:40.325Z,95.32
2023-01-30T04:09:06.867Z,96.35
2023-01-30T04:11:33.325Z,96.10
2023-01-30T04:13:59.744Z,96.06
2023-01-30T04:16:27.318Z,95.46
2023-01-30T04:18:53.857Z,95.03
2023-01-30T04:21:20.331Z,96.44
2023-01-30T04:23:46.943Z,96.07
2023-01-30T04:26:14.012Z,96.24
2023-01-30T04:28:40.544Z,96.77
2023-01-30T04:31:07.324Z,97.28
2023-01-30T04:33:37.057Z,97.27
2023-01-30T04:36:04.782Z,97.31
2023-01-30T04:38:31.948Z,96.72
2023-01-30T04:40:58.773Z,97.09
2023-01-30T04:43:26.293Z,96.98
2023-01-30T04:45:53.208Z,98.10
2023-01-30T04:48:20.605Z,98.45
2023-01-30T04:50:50.466Z,97.35
2023-01-30T04:53:17.604Z,97.76
2023-01-30T04:55:44.395Z,98.02
2023-01-30T04:58:10.856Z,98.06
2023-01-30T05:00:37.532Z,97.83
2023-01-30T05:03:04.092Z,97.99
2023-01-30T05:05:30.639Z,98.05
2023-01-30T05:07:57.159Z,97.50
2023-01-30T05:10:23.861Z,97.51
2023-01-30T05:12:50.303Z,97.27
2023-01-30T05:15:17.186Z,98.17
2023-01-30T05:17:44.811Z,98.51
2023-01-30T05:20:12.612Z,98.46
2023-01-30T05:22:39.225Z,98.51
2023-01-30T05:25:06.111Z,99.32
2023-01-30T05:27:32.609Z,99.30
2023-01-30T05:29:59.155Z,98.82
2023-01-30T05:32:27.345Z,98.66
2023-01-30T05:34:53.903Z,99.48
2023-01-30T05:37:20.428Z,99.98
2023-01-30T05:39:46.918Z,100.00
2023-01-30T05:42:14.325Z,100.00
2023-01-30T05:44:41.034Z,100.00
2023-01-30T05:47:07.517Z,100.00
2023-01-30T05:49:34.030Z,100.00
2023-01-30T05:52:00.573Z,100.00
2023-01-30T05:54:27.065Z,100.00
2023-01-30T05:56:53.529Z,100.00
2023-01-30T05:59:20.084Z,100.00
2023-01-30T06:01:46.676Z,100.00
2023-01-30T06:04:13.280Z,100.00
2023-01-30T06:06:39.781Z,100.00
2023-01-30T06:09:06.325Z,100.00
2023-01-30T06:11:32.846Z,100.00
2023-01-30T06:13:59.347Z,100.00
2023-01-30T06:16:25.838Z,100.00
2023-01-30T06:18:52.429Z,100.00
2023-01-30T06:21:18.938Z,100.00
2023-01-30T06:23:46.379Z,100.00
2023-01-30T06:26:12.916Z,100.00
2023-01-30T06:28:39.481Z,100.00
2023-01-30T06:31:09.196Z,100.00
2023-01-30T06:33:35.859Z,100.00
2023-01-30T06:36:02.408Z,100.00
2023-01-30T06:38:28.929Z,100.00
2023-01-30T06:40:55.466Z,100.00
2023-01-30T06:43:21.944Z,100.00
2023-01-30T06:45:48.503Z,100.00
2023-01-30T06:48:15.029Z,100.00
2023-01-30T06:50:41.581Z,100.00
2023-01-30T06:53:08.531Z,100.00
2023-01-30T06:55:35.930Z,100.00
2023-01-30T06:58:06.763Z,100.00
2023-01-30T07:00:35.991Z,100.00
2023-01-30T07:03:02.476Z,100.00
2023-01-30T07:05:29.333Z,100.00
2023-01-30T07:07:55.865Z,100.00
2023-01-30T07:10:22.813Z,100.00
2023-01-30T07:12:49.349Z,100.00
2023-01-30T07:15:16.090Z,100.00
2023-01-30T07:17:43.093Z,100.00
2023-01-30T07:20:10.112Z,100.00
2023-01-30T07:22:36.590Z,100.00
2023-01-30T07:25:03.146Z,100.00
2023-01-30T07:27:29.765Z,100.00
2023-01-30T07:29:56.365Z,100.00
2023-01-30T07:32:22.881Z,100.00
2023-01-30T07:34:49.509Z,100.00
2023-01-30T07:37:16.079Z,100.00
2023-01-30T07:39:42.660Z,100.00
2023-01-30T07:42:09.293Z,100.00
2023-01-30T07:44:35.830Z,100.00
2023-01-30T07:47:02.539Z,100.00
2023-01-30T07:49:29.183Z,100.00
2023-01-30T07:51:55.712Z,100.00
2023-01-30T07:54:22.212Z,100.00
2023-01-30T07:56:48.732Z,100.00
2023-01-30T07:59:15.257Z,100.00
2023-01-30T08:01:41.753Z,100.00
2023-01-30T08:04:08.463Z,100.00
2023-01-30T08:06:39.162Z,100.00
2023-01-30T08:09:06.843Z,100.00
2023-01-30T08:11:33.413Z,100.00
2023-01-30T08:13:59.974Z,100.00
2023-01-30T08:16:26.496Z,100.00
2023-01-30T08:18:52.970Z,100.00
2023-01-30T08:21:19.523Z,100.00
2023-01-30T08:23:46.102Z,100.00
2023-01-30T08:26:12.798Z,100.00
2023-01-30T08:28:39.490Z,100.00
2023-01-30T08:31:09.566Z,100.00
2023-01-30T08:33:36.147Z,100.00
2023-01-30T08:36:02.663Z,100.00
2023-01-30T08:38:29.147Z,100.00
2023-01-30T08:40:57.120Z,100.00
2023-01-30T08:43:24.380Z,100.00
2023-01-30T08:45:53.165Z,100.00
2023-01-30T08:48:19.681Z,99.32
2023-01-30T08:50:46.204Z,99.47
2023-01-30T08:53:12.778Z,100.00
2023-01-30T08:55:39.889Z,100.00
2023-01-30T08:58:06.419Z,100.00
2023-01-30T09:00:32.890Z,100.00
2023-01-30T09:03:00.628Z,100.00
2023-01-30T09:05:27.150Z,100.00
2023-01-30T09:07:53.657Z,100.00
2023-01-30T09:10:20.562Z,100.00
2023-01-30T09:12:47.282Z,100.00
2023-01-30T09:15:13.927Z,99.93
2023-01-30T09:17:40.478Z,99.44
2023-01-30T09:20:08.341Z,97.60
2023-01-30T09:22:34.936Z,96.99
2023-01-30T09:25:01.813Z,96.57
2023-01-30T09:27:28.277Z,96.06
2023-01-30T09:29:54.820Z,95.60
2023-01-30T09:32:21.543Z,93.14
2023-01-30T09:34:48.077Z,91.56
2023-01-30T09:37:14.607Z,91.06
2023-01-30T09:39:41.198Z,92.59
2023-01-30T09:42:10.680Z,91.60
2023-01-30T09:44:40.525Z,91.87
2023-01-30T09:47:14.050Z,91.71
2023-01-30T09:49:48.925Z,92.80
2023-01-30T09:52:15.472Z,93.63
2023-01-30T09:54:44.744Z,94.62
2023-01-30T09:57:20.873Z,94.34
2023-01-30T10:00:03.508Z,94.22
2023-01-30T10:02:35.994Z,93.75
2023-01-30T10:05:03.634Z,93.86
2023-01-30T10:07:50.521Z,93.02
2023-01-30T10:10:21.600Z,93.06
2023-01-30T10:12:54.210Z,93.46
2023-01-30T10:15:23.816Z,93.86
2023-01-30T10:17:56.336Z,95.08
2023-01-30T10:20:47.491Z,95.08
2023-01-30T10:23:13.985Z,95.51
2023-01-30T10:25:40.406Z,96.29
2023-01-30T10:28:13.027Z,96.41
2023-01-30T10:30:39.836Z,96.64
2023-01-30T10:33:10.507Z,96.95
2023-01-30T10:35:38.559Z,97.70
2023-01-30T10:38:12.822Z,97.29
2023-01-30T10:40:42.378Z,97.84
2023-01-30T10:43:28.213Z,96.63
2023-01-30T10:46:01.487Z,96.94
2023-01-30T10:48:46.379Z,97.22
2023-01-30T10:51:32.287Z,96.15
2023-01-30T10:54:04.705Z,95.95
2023-01-30T10:56:34.229Z,95.66
2023-01-30T10:59:06.696Z,96.35
2023-01-30T11:01:40.127Z,97.15
2023-01-30T11:04:21.847Z,97.38
2023-01-30T11:06:48.736Z,97.86
2023-01-30T11:09:15.194Z,97.11
2023-01-30T11:11:49.845Z,96.73
2023-01-30T11:14:16.549Z,97.05
2023-01-30T11:16:44.965Z,97.47
2023-01-30T11:19:21.523Z,96.88
2023-01-30T11:21:51.552Z,95.16
2023-01-30T11:24:19.548Z,94.57
2023-01-30T11:26:48.095Z,95.50
2023-01-30T11:29:27.205Z,95.06
2023-01-30T11:31:54.645Z,95.05
2023-01-30T11:34:22.250Z,95.27
2023-01-30T11:36:49.425Z,95.01
2023-01-30T11:39:19.963Z,94.39
2023-01-30T11:41:55.591Z,94.18
2023-01-30T11:44:28.127Z,94.71
2023-01-30T11:46:57.661Z,95.07
2023-01-30T11:49:46.387Z,94.46
2023-01-30T11:52:11.162Z,94.05
2023-01-30T11:54:43.044Z,94.11
2023-01-30T11:57:17.605Z,94.42
2023-01-30T11:59:46.660Z,95.12
2023-01-30T12:02:29.751Z,95.94
2023-01-30T12:04:59.323Z,95.47
2023-01-30T12:07:27.437Z,94.19
2023-01-30T12:09:54.640Z,93.83
2023-01-30T12:12:26.961Z,94.36
2023-01-30T12:14:54.734Z,93.49
2023-01-30T12:17:23.573Z,92.60
2023-01-30T12:20:16.818Z,92.46
2023-01-30T12:22:46.772Z,93.08
2023-01-30T12:25:17.176Z,92.52
2023-01-30T12:27:49.724Z,90.84
2023-01-30T12:30:36.901Z,91.04
2023-01-30T12:33:04.782Z,90.45
2023-01-30T12:35:54.371Z,90.09
2023-01-30T12:38:20.769Z,89.59
2023-01-30T12:41:03.247Z,89.23
2023-01-30T12:43:40.431Z,90.18
2023-01-30T12:46:36.816Z,89.65
2023-01-30T12:49:11.620Z,88.77
2023-01-30T12:51:39.529Z,87.27
2023-01-30T12:54:32.385Z,88.27
2023-01-30T12:57:01.893Z,87.63
2023-01-30T12:59:46.971Z,86.73
2023-01-30T13:02:32.176Z,85.90
2023-01-30T13:05:04.570Z,86.88
2023-01-30T13:07:38.833Z,85.71
2023-01-30T13:10:11.493Z,85.46
2023-01-30T13:12:42.244Z,84.98
2023-01-30T13:15:16.028Z,83.37
2023-01-30T13:17:42.511Z,83.13
2023-01-30T13:20:31.892Z,83.13
2023-01-30T13:23:04.735Z,82.56
2023-01-30T13:25:34.971Z,81.75
2023-01-30T13:28:05.875Z,81.90
2023-01-30T13:30:34.203Z,83.34
2023-01-30T13:33:11.493Z,84.23
2023-01-30T13:35:50.872Z,84.71
2023-01-30T13:38:20.073Z,85.87
2023-01-30T13:40:48.107Z,86.15
2023-01-30T13:43:21.093Z,85.55
2023-01-30T13:45:49.133Z,86.93
2023-01-30T13:48:26.490Z,86.40
2023-01-30T13:50:58.959Z,87.51
2023-01-30T13:53:28.632Z,88.26
2023-01-30T13:56:03.166Z,87.54
2023-01-30T13:58:35.566Z,88.14
2023-01-30T14:01:02.369Z,88.49
2023-01-30T14:03:31.635Z,87.75
2023-01-30T14:05:59.257Z,88.06
2023-01-30T14:08:27.872Z,88.03
2023-01-30T14:10:55.856Z,87.16
2023-01-30T14:13:23.625Z,85.58
2023-01-30T14:15:57.659Z,85.92
2023-01-30T14:18:30.842Z,86.36
2023-01-30T14:21:16.780Z,86.42
2023-01-30T14:23:55.424Z,86.99
2023-01-30T14:26:40.692Z,86.21
2023-01-30T14:29:12.061Z,86.63
2023-01-30T14:31:46.790Z,87.23
2023-01-30T14:34:31.849Z,87.43
2023-01-30T14:36:58.306Z,88.24
2023-01-30T14:39:38.600Z,87.48
2023-01-30T14:42:12.019Z,87.06
2023-01-30T14:44:57.027Z,87.06
2023-01-30T14:47:32.968Z,86.81
2023-01-30T14:50:22.771Z,86.87
2023-01-30T14:52:50.480Z,86.21
2023-01-30T14:55:23.444Z,87.48
2023-01-30T14:57:57.853Z,87.95
2023-01-30T15:00:29.216Z,87.44
2023-01-30T15:02:59.322Z,86.96
2023-01-30T15:05:45.674Z,86.83
2023-01-30T15:08:16.881Z,86.32
2023-01-30T15:10:53.117Z,86.16
2023-01-30T15:13:38.479Z,86.38
2023-01-30T15:16:22.684Z,86.25
2023-01-30T15:19:02.807Z,86.17
2023-01-30T15:21:29.274Z,86.56
2023-01-30T15:24:13.817Z,86.68
2023-01-30T15:26:52.420Z,86.09
2023-01-30T15:29:21.774Z,86.33
2023-01-30T15:31:58.737Z,86.87
2023-01-30T15:34:29.543Z,86.71
2023-01-30T15:36:56.056Z,86.86
2023-01-30T15:39:23.926Z,86.73
2023-01-30T15:41:52.723Z,86.75
2023-01-30T15:44:38.104Z,86.79
2023-01-30T15:47:10.375Z,86.46
2023-01-30T15:49:46.817Z,86.15
2023-01-30T15:52:15.634Z,85.80
2023-01-30T15:54:48.883Z,85.99
2023-01-30T15:57:20.805Z,85.67
2023-01-30T15:59:47.876Z,86.06
2023-01-30T16:02:16.812Z,87.10
2023-01-30T16:04:43.385Z,86.80
2023-01-30T16:07:16.652Z,86.98
2023-01-30T16:09:49.612Z,88.12
2023-01-30T16:12:24.671Z,88.55
2023-01-30T16:14:51.303Z,88.38
2023-01-30T16:17:19.589Z,88.47
2023-01-30T16:19:46.174Z,89.03
2023-01-30T16:22:17.535Z,89.66
2023-01-30T16:24:45.763Z,89.69
2023-01-30T16:27:32.469Z,89.15
2023-01-30T16:30:01.462Z,88.17
2023-01-30T16:32:29.061Z,88.44
2023-01-30T16:35:14.027Z,88.35
2023-01-30T16:37:40.507Z,88.60
2023-01-30T16:40:19.220Z,88.72
2023-01-30T16:43:15.585Z,88.90
2023-01-30T16:45:43.226Z,87.94
2023-01-30T16:48:22.957Z,87.34
2023-01-30T16:50:59.245Z,87.67
2023-01-30T16:53:26.912Z,87.42
2023-01-30T16:55:58.466Z,87.84
2023-01-30T16:58:28.805Z,88.45
2023-01-30T17:00:55.406Z,89.68
2023-01-30T17:03:26.797Z,91.28
2023-01-30T17:05:53.325Z,92.63
2023-01-30T17:08:31.786Z,93.63
2023-01-30T17:11:01.920Z,94.66
2023-01-30T17:13:43.551Z,94.69
2023-01-30T17:16:22.133Z,95.11
2023-01-30T17:18:52.977Z,95.97
2023-01-30T17:21:20.356Z,96.37
2023-01-30T17:23:49.104Z,95.83
2023-01-30T17:26:15.876Z,95.60
2023-01-30T17:28:42.444Z,95.04
2023-01-30T17:31:12.707Z,94.83
2023-01-30T17:33:39.270Z,95.59
2023-01-30T17:36:07.299Z,96.02
2023-01-30T17:38:33.851Z,95.18
2023-01-30T17:41:02.113Z,93.91
2023-01-30T17:43:30.932Z,93.30
2023-01-30T17:45:57.801Z,91.95
2023-01-30T17:48:24.309Z,91.70
2023-01-30T17:50:50.831Z,92.36
2023-01-30T17:53:17.342Z,93.72
2023-01-30T17:55:43.806Z,92.77
2023-01-30T17:58:15.720Z,93.91
2023-01-30T18:00:42.205Z,93.66
2023-01-30T18:03:08.790Z,94.14
2023-01-30T18:05:36.279Z,95.46
2023-01-30T18:08:02.736Z,95.31
2023-01-30T18:10:29.194Z,95.33
2023-01-30T18:12:55.779Z,95.50
2023-01-30T18:15:22.415Z,95.23
2023-01-30T18:17:49.928Z,95.22
2023-01-30T18:20:18.548Z,93.92
2023-01-30T18:22:45.661Z,93.09
2023-01-30T18:25:15.654Z,94.00
2023-01-30T18:27:47.312Z,94.29
2023-01-30T18:30:17.180Z,94.58
2023-01-30T18:32:52.385Z,95.40
2023-01-30T18:35:19.753Z,95.75
2023-01-30T18:37:46.334Z,96.33
2023-01-30T18:40:15.149Z,96.68
2023-01-30T18:42:41.828Z,95.70
2023-01-30T18:45:08.556Z,94.31
2023-01-30T18:47:35.195Z,93.54
2023-01-30T18:50:01.716Z,93.49
2023-01-30T18:52:28.325Z,93.00
2023-01-30T18:54:54.857Z,92.58
2023-01-30T18:57:21.402Z,92.10
2023-01-30T18:59:48.328Z,92.69
2023-01-30T19:02:14.940Z,92.77
2023-01-30T19:04:42.596Z,92.50
2023-01-30T19:07:09.173Z,93.41
2023-01-30T19:09:35.700Z,93.41
2023-01-30T19:12:20.477Z,92.64
2023-01-30T19:14:46.963Z,92.30
2023-01-30T19:17:15.420Z,92.11
2023-01-30T19:19:43.447Z,92.12
2023-01-30T19:22:09.951Z,92.19
2023-01-30T19:24:36.450Z,92.25
2023-01-30T19:27:03.681Z,92.22
2023-01-30T19:29:30.230Z,92.62
2023-01-30T19:31:56.765Z,93.00
2023-01-30T19:34:23.394Z,93.13
2023-01-30T19:36:49.877Z,92.64
2023-01-30T19:39:16.394Z,92.78
2023-01-30T19:41:42.938Z,92.61
2023-01-30T19:44:11.752Z,92.75
2023-01-30T19:46:38.284Z,92.98
2023-01-30T19:49:05.823Z,94.02
2023-01-30T19:51:33.647Z,94.69
2023-01-30T19:54:01.377Z,94.53
2023-01-30T19:56:31.366Z,95.17
2023-01-30T19:58:58.826Z,95.03
2023-01-30T20:01:29.610Z,94.35
2023-01-30T20:03:56.762Z,94.56
2023-01-30T20:06:24.702Z,94.05
2023-01-30T20:08:54.649Z,93.86
2023-01-30T20:11:21.985Z,93.89
2023-01-30T20:13:48.574Z,93.39
2023-01-30T20:16:18.888Z,93.17
2023-01-30T20:18:48.272Z,93.28
2023-01-30T20:21:19.308Z,93.67
2023-01-30T20:23:46.305Z,93.73
2023-01-30T20:26:14.612Z,93.79
2023-01-30T20:28:41.639Z,94.52
2023-01-30T20:31:17.641Z,94.85
2023-01-30T20:33:45.691Z,94.39
2023-01-30T20:36:13.306Z,94.35
2023-01-30T20:38:42.415Z,94.54
2023-01-30T20:41:22.714Z,94.07
2023-01-30T20:43:51.214Z,94.99
2023-01-30T20:46:18.932Z,94.79
2023-01-30T20:48:45.965Z,95.00
2023-01-30T20:51:14.443Z,95.41
2023-01-30T20:53:46.368Z,95.92
2023-01-30T20:56:13.047Z,95.99
2023-01-30T20:58:39.801Z,96.89
2023-01-30T21:01:08.015Z,97.84
2023-01-30T21:03:34.497Z,97.79
2023-01-30T21:06:01.584Z,97.42
2023-01-30T21:08:28.289Z,97.37
2023-01-30T21:10:55.052Z,96.80
2023-01-30T21:13:22.115Z,96.97
2023-01-30T21:15:48.717Z,96.80
2023-01-30T21:18:15.217Z,96.18
2023-01-30T21:20:48.054Z,95.73
2023-01-30T21:23:16.046Z,96.64
2023-01-30T21:25:42.511Z,96.99
2023-01-30T21:28:09.113Z,96.79
2023-01-30T21:30:38.243Z,97.01
2023-01-30T21:33:04.832Z,96.36
2023-01-30T21:35:31.910Z,96.83
2023-01-30T21:38:16.962Z,96.25
2023-01-30T21:41:07.939Z,96.47
2023-01-30T21:43:34.446Z,95.96
2023-01-30T21:46:01.080Z,96.12
2023-01-30T21:48:27.958Z,96.18
2023-01-30T21:50:54.481Z,96.09
2023-01-30T21:53:20.999Z,96.42
2023-01-30T21:55:51.483Z,96.04
2023-01-30T21:58:18.257Z,96.18
2023-01-30T22:00:44.956Z,96.12
2023-01-30T22:03:11.654Z,96.14
2023-01-30T22:05:38.803Z,95.56
2023-01-30T22:08:05.686Z,95.79
2023-01-30T22:10:32.227Z,95.92
2023-01-30T22:12:58.770Z,96.58
2023-01-30T22:15:26.228Z,96.76
2023-01-30T22:17:53.281Z,96.99
2023-01-30T22:20:19.777Z,97.09
2023-01-30T22:22:47.257Z,97.80
2023-01-30T22:25:13.830Z,98.17
2023-01-30T22:27:40.368Z,97.41
2023-01-30T22:30:07.095Z,97.11
2023-01-30T22:32:33.582Z,97.32
2023-01-30T22:35:01.386Z,97.13
2023-01-30T22:37:27.877Z,97.47
2023-01-30T22:39:54.413Z,97.43
2023-01-30T22:42:20.910Z,98.21
2023-01-30T22:44:47.330Z,97.78
2023-01-30T22:47:13.875Z,99.38
2023-01-30T22:49:40.459Z,99.50
2023-01-30T22:52:06.967Z,99.84
2023-01-30T22:54:33.453Z,100.00
2023-01-30T22:56:59.955Z,100.00
2023-01-30T22:59:26.497Z,100.00
2023-01-30T23:01:53.026Z,100.00
2023-01-30T23:04:20.887Z,100.00
2023-01-30T23:06:48.291Z,100.00
2023-01-30T23:09:16.143Z,100.00
2023-01-30T23:11:44.197Z,100.00
2023-01-30T23:14:15.212Z,100.00
2023-01-30T23:16:42.765Z,100.00
2023-01-30T23:19:10.350Z,100.00
2023-01-30T23:21:38.378Z,100.00
2023-01-30T23:24:09.913Z,100.00
2023-01-30T23:26:38.138Z,100.00
2023-01-30T23:29:07.686Z,100.00
2023-01-30T23:31:35.414Z,100.00
2023-01-30T23:34:03.719Z,100.00
2023-01-30T23:36:30.590Z,100.00
2023-01-30T23:38:58.274Z,100.00
2023-01-30T23:41:26.001Z,100.00
2023-01-30T23:43:53.057Z,99.51
2023-01-30T23:46:24.150Z,99.07
2023-01-30T23:48:52.136Z,99.34
2023-01-30T23:51:19.436Z,98.81
2023-01-30T23:53:46.523Z,99.75
2023-01-30T23:56:13.766Z,99.83
2023-01-30T23:58:41.953Z,98.79
